New Hamburg, Missouri
Current Conditions -  °F | °C
As of 4:53 PM on Tuesday 21 Oct 2014 (Local Time) from KCGI Reporting Station
Clear Clear  
Wind Chill: 70°   Ceiling: Unl
Heat Index: 70°   Visibility: 10mi
Dew Point: 46°   Wind: 7mph
Humidity: 42%   Direction: 350°N
Pressure: 30.07"   Gusts: NA
Location:  37.0755°N, 89.5496°W
Report Text: KCGI 212153Z 35006KT 10SM CLR 21/08 A3007 RMK AO2 SLP183 T02110078
Loading
Personal Weather Stations






























Interactive Weather Map
Tropical Storm Tracking
New forecast layout! Learn more

10-Day Weather Forecast

Advertisements
Track Severe Weather on mobile